臺北終端管制區 - 桃園北區雷達席

METAR RCTP 011700Z 05020KT 9999 FEW006 BKN008 BKN018 18/17 Q1020 NOSIG RMK A3013(B)=

站台狀態:Online
最後更新:2022-12-02 01:00:01